sensor_id;sensor_type;location;lat;lon;timestamp;temperature;humidity
20487;DHT22;10402;49.012;8.370;2023-04-03T00:01:54;6.90;73.00
20487;DHT22;10402;49.012;8.370;2023-04-03T00:04:20;6.90;73.00
20487;DHT22;10402;49.012;8.370;2023-04-03T00:06:45;6.90;72.70
20487;DHT22;10402;49.012;8.370;2023-04-03T00:09:11;6.90;72.80
20487;DHT22;10402;49.012;8.370;2023-04-03T00:11:36;6.90;73.10
20487;DHT22;10402;49.012;8.370;2023-04-03T00:14:02;6.90;72.70
20487;DHT22;10402;49.012;8.370;2023-04-03T00:16:27;6.90;72.80
20487;DHT22;10402;49.012;8.370;2023-04-03T00:18:53;6.90;72.60
20487;DHT22;10402;49.012;8.370;2023-04-03T00:21:19;6.90;72.50
20487;DHT22;10402;49.012;8.370;2023-04-03T00:23:44;6.90;72.60
20487;DHT22;10402;49.012;8.370;2023-04-03T00:26:10;6.90;72.20
20487;DHT22;10402;49.012;8.370;2023-04-03T00:28:36;6.90;72.50
20487;DHT22;10402;49.012;8.370;2023-04-03T00:31:01;6.90;72.50
20487;DHT22;10402;49.012;8.370;2023-04-03T00:33:27;6.90;72.60
20487;DHT22;10402;49.012;8.370;2023-04-03T00:35:53;6.90;72.30
20487;DHT22;10402;49.012;8.370;2023-04-03T00:38:18;6.80;72.40
20487;DHT22;10402;49.012;8.370;2023-04-03T00:40:46;6.80;72.70
20487;DHT22;10402;49.012;8.370;2023-04-03T00:43:18;6.90;72.70
20487;DHT22;10402;49.012;8.370;2023-04-03T00:45:47;6.90;72.60
20487;DHT22;10402;49.012;8.370;2023-04-03T00:48:17;6.90;72.50
20487;DHT22;10402;49.012;8.370;2023-04-03T00:50:44;6.90;72.50
20487;DHT22;10402;49.012;8.370;2023-04-03T00:53:20;6.90;71.70
20487;DHT22;10402;49.012;8.370;2023-04-03T00:55:49;6.80;71.60
20487;DHT22;10402;49.012;8.370;2023-04-03T00:58:17;6.80;71.80
20487;DHT22;10402;49.012;8.370;2023-04-03T01:00:50;6.70;71.70
20487;DHT22;10402;49.012;8.370;2023-04-03T01:03:21;6.70;72.30
20487;DHT22;10402;49.012;8.370;2023-04-03T01:05:47;6.60;72.20
20487;DHT22;10402;49.012;8.370;2023-04-03T01:08:12;6.60;72.40
20487;DHT22;10402;49.012;8.370;2023-04-03T01:10:38;6.70;72.40
20487;DHT22;10402;49.012;8.370;2023-04-03T01:13:24;6.70;71.50
20487;DHT22;10402;49.012;8.370;2023-04-03T01:15:50;6.70;71.50
20487;DHT22;10402;49.012;8.370;2023-04-03T01:18:16;6.60;71.40
20487;DHT22;10402;49.012;8.370;2023-04-03T01:23:59;6.60;71.40
20487;DHT22;10402;49.012;8.370;2023-04-03T01:26:28;6.70;71.50
20487;DHT22;10402;49.012;8.370;2023-04-03T01:28:54;6.60;71.40
20487;DHT22;10402;49.012;8.370;2023-04-03T01:31:28;6.60;71.40
20487;DHT22;10402;49.012;8.370;2023-04-03T01:33:55;6.60;71.40
20487;DHT22;10402;49.012;8.370;2023-04-03T01:36:24;6.70;72.30
20487;DHT22;10402;49.012;8.370;2023-04-03T01:38:50;6.70;71.50
20487;DHT22;10402;49.012;8.370;2023-04-03T01:41:17;6.60;71.20
20487;DHT22;10402;49.012;8.370;2023-04-03T01:43:43;6.50;71.30
20487;DHT22;10402;49.012;8.370;2023-04-03T01:46:08;6.50;71.30
20487;DHT22;10402;49.012;8.370;2023-04-03T01:48:34;6.50;71.30
20487;DHT22;10402;49.012;8.370;2023-04-03T01:51:00;6.50;71.20
20487;DHT22;10402;49.012;8.370;2023-04-03T01:53:25;6.40;70.90
20487;DHT22;10402;49.012;8.370;2023-04-03T01:55:51;6.30;71.10
20487;DHT22;10402;49.012;8.370;2023-04-03T01:58:16;6.30;71.10
20487;DHT22;10402;49.012;8.370;2023-04-03T02:00:42;6.30;71.10
20487;DHT22;10402;49.012;8.370;2023-04-03T02:03:08;6.20;71.50
20487;DHT22;10402;49.012;8.370;2023-04-03T02:05:33;6.20;71.50
20487;DHT22;10402;49.012;8.370;2023-04-03T02:07:59;6.20;71.60
20487;DHT22;10402;49.012;8.370;2023-04-03T02:10:25;6.20;71.60
20487;DHT22;10402;49.012;8.370;2023-04-03T02:12:51;6.10;71.50
20487;DHT22;10402;49.012;8.370;2023-04-03T02:15:17;6.10;71.70
20487;DHT22;10402;49.012;8.370;2023-04-03T02:17:43;6.00;71.60
20487;DHT22;10402;49.012;8.370;2023-04-03T02:20:08;6.00;71.90
20487;DHT22;10402;49.012;8.370;2023-04-03T02:22:34;6.00;72.20
20487;DHT22;10402;49.012;8.370;2023-04-03T02:25:00;6.00;71.90
20487;DHT22;10402;49.012;8.370;2023-04-03T02:27:26;6.00;72.10
20487;DHT22;10402;49.012;8.370;2023-04-03T02:29:51;6.00;71.90
20487;DHT22;10402;49.012;8.370;2023-04-03T02:32:17;5.90;71.40
20487;DHT22;10402;49.012;8.370;2023-04-03T02:34:42;5.80;71.70
20487;DHT22;10402;49.012;8.370;2023-04-03T02:37:08;5.80;71.70
20487;DHT22;10402;49.012;8.370;2023-04-03T02:39:34;5.80;71.80
20487;DHT22;10402;49.012;8.370;2023-04-03T02:42:00;5.70;71.70
20487;DHT22;10402;49.012;8.370;2023-04-03T02:44:25;5.70;72.10
20487;DHT22;10402;49.012;8.370;2023-04-03T02:46:51;5.70;72.20
20487;DHT22;10402;49.012;8.370;2023-04-03T02:49:17;5.70;72.20
20487;DHT22;10402;49.012;8.370;2023-04-03T02:51:42;5.70;72.40
20487;DHT22;10402;49.012;8.370;2023-04-03T02:54:08;5.70;72.40
20487;DHT22;10402;49.012;8.370;2023-04-03T02:56:34;5.60;72.40
20487;DHT22;10402;49.012;8.370;2023-04-03T02:58:59;5.60;72.50
20487;DHT22;10402;49.012;8.370;2023-04-03T03:01:25;5.60;72.60
20487;DHT22;10402;49.012;8.370;2023-04-03T03:03:54;5.60;72.40
20487;DHT22;10402;49.012;8.370;2023-04-03T03:06:19;5.50;72.50
20487;DHT22;10402;49.012;8.370;2023-04-03T03:08:45;5.40;72.60
20487;DHT22;10402;49.012;8.370;2023-04-03T03:11:11;5.40;72.70
20487;DHT22;10402;49.012;8.370;2023-04-03T03:13:36;5.30;72.90
20487;DHT22;10402;49.012;8.370;2023-04-03T03:16:02;5.40;73.10
20487;DHT22;10402;49.012;8.370;2023-04-03T03:18:28;5.30;72.60
20487;DHT22;10402;49.012;8.370;2023-04-03T03:20:58;5.30;73.00
20487;DHT22;10402;49.012;8.370;2023-04-03T03:23:25;5.30;72.90
20487;DHT22;10402;49.012;8.370;2023-04-03T03:25:56;5.20;72.90
20487;DHT22;10402;49.012;8.370;2023-04-03T03:28:22;5.20;73.30
20487;DHT22;10402;49.012;8.370;2023-04-03T03:30:48;5.20;73.40
20487;DHT22;10402;49.012;8.370;2023-04-03T03:33:13;5.30;73.40
20487;DHT22;10402;49.012;8.370;2023-04-03T03:35:39;5.30;73.10
20487;DHT22;10402;49.012;8.370;2023-04-03T03:38:05;5.20;73.00
20487;DHT22;10402;49.012;8.370;2023-04-03T03:40:30;5.20;73.30
20487;DHT22;10402;49.012;8.370;2023-04-03T03:42:56;5.20;73.40
20487;DHT22;10402;49.012;8.370;2023-04-03T03:45:21;5.20;73.50
20487;DHT22;10402;49.012;8.370;2023-04-03T03:47:47;5.10;73.40
20487;DHT22;10402;49.012;8.370;2023-04-03T03:50:13;5.10;73.50
20487;DHT22;10402;49.012;8.370;2023-04-03T03:52:38;5.10;73.50
20487;DHT22;10402;49.012;8.370;2023-04-03T03:55:04;5.00;73.60
20487;DHT22;10402;49.012;8.370;2023-04-03T03:57:30;5.00;73.60
20487;DHT22;10402;49.012;8.370;2023-04-03T03:59:55;5.00;73.60
20487;DHT22;10402;49.012;8.370;2023-04-03T04:02:21;5.00;73.90
20487;DHT22;10402;49.012;8.370;2023-04-03T04:04:47;5.00;74.00
20487;DHT22;10402;49.012;8.370;2023-04-03T04:07:12;5.00;74.10
20487;DHT22;10402;49.012;8.370;2023-04-03T04:09:38;4.90;74.00
20487;DHT22;10402;49.012;8.370;2023-04-03T04:12:03;5.00;74.10
20487;DHT22;10402;49.012;8.370;2023-04-03T04:14:29;5.00;74.20
20487;DHT22;10402;49.012;8.370;2023-04-03T04:16:55;5.00;74.30
20487;DHT22;10402;49.012;8.370;2023-04-03T04:19:20;5.00;74.30
20487;DHT22;10402;49.012;8.370;2023-04-03T04:21:46;4.90;74.20
20487;DHT22;10402;49.012;8.370;2023-04-03T04:24:11;5.00;74.30
20487;DHT22;10402;49.012;8.370;2023-04-03T04:26:37;5.00;74.30
20487;DHT22;10402;49.012;8.370;2023-04-03T04:29:02;5.00;74.30
20487;DHT22;10402;49.012;8.370;2023-04-03T04:31:28;5.00;74.30
20487;DHT22;10402;49.012;8.370;2023-04-03T04:33:53;5.00;74.30
20487;DHT22;10402;49.012;8.370;2023-04-03T04:36:19;5.10;74.40
20487;DHT22;10402;49.012;8.370;2023-04-03T04:41:12;5.10;74.40
20487;DHT22;10402;49.012;8.370;2023-04-03T04:43:38;5.10;74.30
20487;DHT22;10402;49.012;8.370;2023-04-03T04:46:08;5.10;74.40
20487;DHT22;10402;49.012;8.370;2023-04-03T04:48:35;5.10;74.40
20487;DHT22;10402;49.012;8.370;2023-04-03T04:51:01;5.10;74.40
20487;DHT22;10402;49.012;8.370;2023-04-03T04:53:27;5.20;74.30
20487;DHT22;10402;49.012;8.370;2023-04-03T04:55:53;5.20;74.30
20487;DHT22;10402;49.012;8.370;2023-04-03T04:58:18;5.20;74.60
20487;DHT22;10402;49.012;8.370;2023-04-03T05:00:45;5.30;74.60
20487;DHT22;10402;49.012;8.370;2023-04-03T05:03:10;5.30;74.40
20487;DHT22;10402;49.012;8.370;2023-04-03T05:05:36;5.30;74.30
20487;DHT22;10402;49.012;8.370;2023-04-03T05:08:02;5.20;74.30
20487;DHT22;10402;49.012;8.370;2023-04-03T05:10:28;5.10;74.50
20487;DHT22;10402;49.012;8.370;2023-04-03T05:12:54;5.10;74.60
20487;DHT22;10402;49.012;8.370;2023-04-03T05:15:19;5.00;74.40
20487;DHT22;10402;49.012;8.370;2023-04-03T05:17:45;5.00;74.60
20487;DHT22;10402;49.012;8.370;2023-04-03T05:20:11;4.90;74.40
20487;DHT22;10402;49.012;8.370;2023-04-03T05:22:37;4.90;74.50
20487;DHT22;10402;49.012;8.370;2023-04-03T05:25:03;4.90;74.20
20487;DHT22;10402;49.012;8.370;2023-04-03T05:27:28;4.80;74.20
20487;DHT22;10402;49.012;8.370;2023-04-03T05:29:54;4.80;74.00
20487;DHT22;10402;49.012;8.370;2023-04-03T05:32:21;4.70;73.80
20487;DHT22;10402;49.012;8.370;2023-04-03T05:34:46;4.60;74.00
20487;DHT22;10402;49.012;8.370;2023-04-03T05:37:12;4.50;74.20
20487;DHT22;10402;49.012;8.370;2023-04-03T05:39:37;4.50;73.90
20487;DHT22;10402;49.012;8.370;2023-04-03T05:42:07;4.50;74.00
20487;DHT22;10402;49.012;8.370;2023-04-03T05:44:33;4.50;74.30
20487;DHT22;10402;49.012;8.370;2023-04-03T05:46:59;4.50;74.10
20487;DHT22;10402;49.012;8.370;2023-04-03T05:49:24;4.50;73.90
20487;DHT22;10402;49.012;8.370;2023-04-03T05:51:50;4.50;74.10
20487;DHT22;10402;49.012;8.370;2023-04-03T05:54:25;4.60;74.20
20487;DHT22;10402;49.012;8.370;2023-04-03T05:56:52;4.60;74.00
20487;DHT22;10402;49.012;8.370;2023-04-03T05:59:18;4.60;73.80
20487;DHT22;10402;49.012;8.370;2023-04-03T06:01:44;4.60;73.90
20487;DHT22;10402;49.012;8.370;2023-04-03T06:04:10;4.60;74.10
20487;DHT22;10402;49.012;8.370;2023-04-03T06:06:56;4.70;74.00
20487;DHT22;10402;49.012;8.370;2023-04-03T06:09:25;4.70;73.90
20487;DHT22;10402;49.012;8.370;2023-04-03T06:11:51;4.70;73.60
20487;DHT22;10402;49.012;8.370;2023-04-03T06:14:17;4.70;73.50
20487;DHT22;10402;49.012;8.370;2023-04-03T06:16:43;4.70;73.60
20487;DHT22;10402;49.012;8.370;2023-04-03T06:19:09;4.70;73.60
20487;DHT22;10402;49.012;8.370;2023-04-03T06:21:36;4.70;73.70
20487;DHT22;10402;49.012;8.370;2023-04-03T06:24:06;4.70;73.80
20487;DHT22;10402;49.012;8.370;2023-04-03T06:26:32;4.70;73.80
20487;DHT22;10402;49.012;8.370;2023-04-03T06:28:58;4.70;73.60
20487;DHT22;10402;49.012;8.370;2023-04-03T06:31:24;4.70;73.50
20487;DHT22;10402;49.012;8.370;2023-04-03T06:33:49;4.70;73.60
20487;DHT22;10402;49.012;8.370;2023-04-03T06:36:15;4.80;73.70
20487;DHT22;10402;49.012;8.370;2023-04-03T06:38:45;4.80;73.60
20487;DHT22;10402;49.012;8.370;2023-04-03T06:41:11;4.80;73.40
20487;DHT22;10402;49.012;8.370;2023-04-03T06:43:37;4.90;73.50
20487;DHT22;10402;49.012;8.370;2023-04-03T06:46:02;5.00;73.60
20487;DHT22;10402;49.012;8.370;2023-04-03T06:48:28;5.00;73.60
20487;DHT22;10402;49.012;8.370;2023-04-03T06:50:53;5.20;74.20
20487;DHT22;10402;49.012;8.370;2023-04-03T06:53:19;5.20;73.30
20487;DHT22;10402;49.012;8.370;2023-04-03T06:55:44;5.30;73.40
20487;DHT22;10402;49.012;8.370;2023-04-03T06:58:10;5.30;73.30
20487;DHT22;10402;49.012;8.370;2023-04-03T07:00:36;5.30;73.00
20487;DHT22;10402;49.012;8.370;2023-04-03T07:03:01;5.30;72.90
20487;DHT22;10402;49.012;8.370;2023-04-03T07:05:27;5.30;72.90
20487;DHT22;10402;49.012;8.370;2023-04-03T07:07:53;5.30;72.90
20487;DHT22;10402;49.012;8.370;2023-04-03T07:10:19;5.30;72.60
20487;DHT22;10402;49.012;8.370;2023-04-03T07:12:44;5.30;72.70
20487;DHT22;10402;49.012;8.370;2023-04-03T07:15:11;5.40;72.80
20487;DHT22;10402;49.012;8.370;2023-04-03T07:17:38;5.30;72.40
20487;DHT22;10402;49.012;8.370;2023-04-03T07:20:04;5.30;72.70
20487;DHT22;10402;49.012;8.370;2023-04-03T07:22:30;5.40;73.00
20487;DHT22;10402;49.012;8.370;2023-04-03T07:24:55;5.60;73.10
20487;DHT22;10402;49.012;8.370;2023-04-03T07:27:21;5.60;72.90
20487;DHT22;10402;49.012;8.370;2023-04-03T07:29:47;5.60;72.50
20487;DHT22;10402;49.012;8.370;2023-04-03T07:32:14;5.60;72.70
20487;DHT22;10402;49.012;8.370;2023-04-03T07:34:40;5.70;72.80
20487;DHT22;10402;49.012;8.370;2023-04-03T07:37:06;5.70;72.80
20487;DHT22;10402;49.012;8.370;2023-04-03T07:39:32;5.80;72.90
20487;DHT22;10402;49.012;8.370;2023-04-03T07:41:58;5.80;72.90
20487;DHT22;10402;49.012;8.370;2023-04-03T07:44:24;5.90;72.90
20487;DHT22;10402;49.012;8.370;2023-04-03T07:46:49;5.90;72.50
20487;DHT22;10402;49.012;8.370;2023-04-03T07:49:16;6.00;72.40
20487;DHT22;10402;49.012;8.370;2023-04-03T07:51:43;6.00;72.20
20487;DHT22;10402;49.012;8.370;2023-04-03T07:54:09;6.10;72.50
20487;DHT22;10402;49.012;8.370;2023-04-03T07:56:35;6.20;72.50
20487;DHT22;10402;49.012;8.370;2023-04-03T07:59:00;6.20;72.10
20487;DHT22;10402;49.012;8.370;2023-04-03T08:01:26;6.20;71.90
20487;DHT22;10402;49.012;8.370;2023-04-03T08:03:51;6.20;72.00
20487;DHT22;10402;49.012;8.370;2023-04-03T08:06:17;6.30;72.20
20487;DHT22;10402;49.012;8.370;2023-04-03T08:08:43;6.30;71.30
20487;DHT22;10402;49.012;8.370;2023-04-03T08:11:09;6.30;71.10
20487;DHT22;10402;49.012;8.370;2023-04-03T08:13:35;6.40;71.20
20487;DHT22;10402;49.012;8.370;2023-04-03T08:16:12;6.40;71.20
20487;DHT22;10402;49.012;8.370;2023-04-03T08:18:38;6.50;71.30
20487;DHT22;10402;49.012;8.370;2023-04-03T08:21:09;6.60;71.40
20487;DHT22;10402;49.012;8.370;2023-04-03T08:23:34;6.70;71.50
20487;DHT22;10402;49.012;8.370;2023-04-03T08:26:07;6.80;70.90
20487;DHT22;10402;49.012;8.370;2023-04-03T08:28:33;6.90;71.00
20487;DHT22;10402;49.012;8.370;2023-04-03T08:31:03;7.00;70.90
20487;DHT22;10402;49.012;8.370;2023-04-03T08:33:31;7.10;70.70
20487;DHT22;10402;49.012;8.370;2023-04-03T08:35:56;7.10;70.40
20487;DHT22;10402;49.012;8.370;2023-04-03T08:38:22;7.10;70.20
20487;DHT22;10402;49.012;8.370;2023-04-03T08:40:48;7.20;70.70
20487;DHT22;10402;49.012;8.370;2023-04-03T08:44:02;7.20;70.50
20487;DHT22;10402;49.012;8.370;2023-04-03T08:46:40;7.30;70.50
20487;DHT22;10402;49.012;8.370;2023-04-03T08:49:36;7.50;70.50
20487;DHT22;10402;49.012;8.370;2023-04-03T08:52:04;7.50;70.20
20487;DHT22;10402;49.012;8.370;2023-04-03T08:54:37;7.60;69.50
20487;DHT22;10402;49.012;8.370;2023-04-03T08:57:06;7.60;69.00
20487;DHT22;10402;49.012;8.370;2023-04-03T08:59:34;7.50;68.70
20487;DHT22;10402;49.012;8.370;2023-04-03T09:02:12;7.50;67.90
20487;DHT22;10402;49.012;8.370;2023-04-03T09:04:41;7.60;67.60
20487;DHT22;10402;49.012;8.370;2023-04-03T09:07:20;7.70;67.90
20487;DHT22;10402;49.012;8.370;2023-04-03T09:09:47;7.80;67.80
20487;DHT22;10402;49.012;8.370;2023-04-03T09:12:38;7.90;67.50
20487;DHT22;10402;49.012;8.370;2023-04-03T09:17:58;8.20;67.00
20487;DHT22;10402;49.012;8.370;2023-04-03T09:23:28;8.20;65.90
20487;DHT22;10402;49.012;8.370;2023-04-03T09:26:03;8.30;66.10
20487;DHT22;10402;49.012;8.370;2023-04-03T09:28:33;8.40;66.50
20487;DHT22;10402;49.012;8.370;2023-04-03T09:31:00;8.50;65.90
20487;DHT22;10402;49.012;8.370;2023-04-03T09:33:27;8.60;66.00
20487;DHT22;10402;49.012;8.370;2023-04-03T09:35:55;8.70;65.70
20487;DHT22;10402;49.012;8.370;2023-04-03T09:38:22;8.90;65.90
20487;DHT22;10402;49.012;8.370;2023-04-03T09:43:29;9.10;64.10
20487;DHT22;10402;49.012;8.370;2023-04-03T09:46:15;9.10;63.80
20487;DHT22;10402;49.012;8.370;2023-04-03T09:48:51;9.10;63.60
20487;DHT22;10402;49.012;8.370;2023-04-03T09:51:17;9.10;63.60
20487;DHT22;10402;49.012;8.370;2023-04-03T09:53:44;9.10;63.40
20487;DHT22;10402;49.012;8.370;2023-04-03T09:58:44;9.20;62.20
20487;DHT22;10402;49.012;8.370;2023-04-03T10:04:08;9.10;60.60
20487;DHT22;10402;49.012;8.370;2023-04-03T10:06:40;9.10;61.00
20487;DHT22;10402;49.012;8.370;2023-04-03T10:12:05;9.20;61.00
20487;DHT22;10402;49.012;8.370;2023-04-03T10:19:56;9.30;60.20
20487;DHT22;10402;49.012;8.370;2023-04-03T10:25:18;9.20;60.30
20487;DHT22;10402;49.012;8.370;2023-04-03T10:30:42;9.40;60.50
20487;DHT22;10402;49.012;8.370;2023-04-03T10:36:46;9.50;58.30
20487;DHT22;10402;49.012;8.370;2023-04-03T10:39:44;9.30;58.10
20487;DHT22;10402;49.012;8.370;2023-04-03T10:42:28;9.30;58.30
20487;DHT22;10402;49.012;8.370;2023-04-03T10:45:26;9.20;57.60
20487;DHT22;10402;49.012;8.370;2023-04-03T10:51:06;8.90;55.80
20487;DHT22;10402;49.012;8.370;2023-04-03T10:56:37;9.00;56.30
20487;DHT22;10402;49.012;8.370;2023-04-03T11:01:59;8.90;55.40
20487;DHT22;10402;49.012;8.370;2023-04-03T11:04:27;8.90;55.30
20487;DHT22;10402;49.012;8.370;2023-04-03T11:07:21;8.90;54.50
20487;DHT22;10402;49.012;8.370;2023-04-03T11:09:50;8.80;54.70
20487;DHT22;10402;49.012;8.370;2023-04-03T11:14:56;8.80;54.90
20487;DHT22;10402;49.012;8.370;2023-04-03T11:17:41;8.90;55.40
20487;DHT22;10402;49.012;8.370;2023-04-03T11:22:51;9.00;54.70
20487;DHT22;10402;49.012;8.370;2023-04-03T11:25:21;8.90;54.10
20487;DHT22;10402;49.012;8.370;2023-04-03T11:27:59;8.90;53.60
20487;DHT22;10402;49.012;8.370;2023-04-03T11:30:41;9.00;54.30
20487;DHT22;10402;49.012;8.370;2023-04-03T11:33:21;9.00;53.70
20487;DHT22;10402;49.012;8.370;2023-04-03T11:35:52;9.00;53.60
20487;DHT22;10402;49.012;8.370;2023-04-03T11:38:25;9.10;53.80
20487;DHT22;10402;49.012;8.370;2023-04-03T11:40:53;9.10;54.20
20487;DHT22;10402;49.012;8.370;2023-04-03T11:43:24;9.20;53.70
20487;DHT22;10402;49.012;8.370;2023-04-03T11:53:34;9.40;54.10
20487;DHT22;10402;49.012;8.370;2023-04-03T11:56:26;9.30;53.90
20487;DHT22;10402;49.012;8.370;2023-04-03T12:01:47;9.20;54.20
20487;DHT22;10402;49.012;8.370;2023-04-03T12:04:14;9.20;54.60
20487;DHT22;10402;49.012;8.370;2023-04-03T12:06:42;9.20;54.30
20487;DHT22;10402;49.012;8.370;2023-04-03T12:09:31;9.10;54.80
20487;DHT22;10402;49.012;8.370;2023-04-03T12:12:00;9.20;54.90
20487;DHT22;10402;49.012;8.370;2023-04-03T12:14:27;9.10;54.70
20487;DHT22;10402;49.012;8.370;2023-04-03T12:16:54;9.10;54.70
20487;DHT22;10402;49.012;8.370;2023-04-03T12:19:37;9.10;54.50
20487;DHT22;10402;49.012;8.370;2023-04-03T12:22:19;9.10;54.70
20487;DHT22;10402;49.012;8.370;2023-04-03T12:24:48;9.30;54.60
20487;DHT22;10402;49.012;8.370;2023-04-03T12:30:05;9.30;54.00
20487;DHT22;10402;49.012;8.370;2023-04-03T12:33:15;9.30;54.10
20487;DHT22;10402;49.012;8.370;2023-04-03T12:38:47;9.10;54.10
20487;DHT22;10402;49.012;8.370;2023-04-03T12:41:37;9.10;53.80
20487;DHT22;10402;49.012;8.370;2023-04-03T12:44:47;9.10;53.60
20487;DHT22;10402;49.012;8.370;2023-04-03T12:47:23;9.00;53.80
20487;DHT22;10402;49.012;8.370;2023-04-03T12:49:52;9.10;53.50
20487;DHT22;10402;49.012;8.370;2023-04-03T12:52:44;9.10;53.20
20487;DHT22;10402;49.012;8.370;2023-04-03T12:55:15;9.10;53.70
20487;DHT22;10402;49.012;8.370;2023-04-03T12:57:41;9.10;53.60
20487;DHT22;10402;49.012;8.370;2023-04-03T13:00:39;9.20;54.10
20487;DHT22;10402;49.012;8.370;2023-04-03T13:03:06;9.20;53.80
20487;DHT22;10402;49.012;8.370;2023-04-03T13:05:32;9.20;53.90
20487;DHT22;10402;49.012;8.370;2023-04-03T13:08:10;9.30;53.60
20487;DHT22;10402;49.012;8.370;2023-04-03T13:10:53;9.20;53.20
20487;DHT22;10402;49.012;8.370;2023-04-03T13:13:20;9.20;53.50
20487;DHT22;10402;49.012;8.370;2023-04-03T13:15:47;9.10;52.50
20487;DHT22;10402;49.012;8.370;2023-04-03T13:18:28;9.10;53.30
20487;DHT22;10402;49.012;8.370;2023-04-03T13:23:29;9.10;52.90
20487;DHT22;10402;49.012;8.370;2023-04-03T13:25:55;9.10;53.20
20487;DHT22;10402;49.012;8.370;2023-04-03T13:28:24;9.10;53.20
20487;DHT22;10402;49.012;8.370;2023-04-03T13:33:29;9.10;53.60
20487;DHT22;10402;49.012;8.370;2023-04-03T13:36:06;9.20;53.60
20487;DHT22;10402;49.012;8.370;2023-04-03T13:38:33;9.20;53.10
20487;DHT22;10402;49.012;8.370;2023-04-03T13:41:02;9.10;53.10
20487;DHT22;10402;49.012;8.370;2023-04-03T13:43:37;9.10;53.00
20487;DHT22;10402;49.012;8.370;2023-04-03T13:46:24;9.10;53.40
20487;DHT22;10402;49.012;8.370;2023-04-03T13:48:52;9.10;53.50
20487;DHT22;10402;49.012;8.370;2023-04-03T13:51:24;9.20;53.60
20487;DHT22;10402;49.012;8.370;2023-04-03T13:53:59;9.30;53.60
20487;DHT22;10402;49.012;8.370;2023-04-03T13:56:34;9.40;53.60
20487;DHT22;10402;49.012;8.370;2023-04-03T14:01:53;9.40;52.50
20487;DHT22;10402;49.012;8.370;2023-04-03T14:04:29;9.40;52.20
20487;DHT22;10402;49.012;8.370;2023-04-03T14:06:55;9.40;52.40
20487;DHT22;10402;49.012;8.370;2023-04-03T14:09:22;9.40;51.80
20487;DHT22;10402;49.012;8.370;2023-04-03T14:11:50;9.40;51.70
20487;DHT22;10402;49.012;8.370;2023-04-03T14:14:29;9.40;52.30
20487;DHT22;10402;49.012;8.370;2023-04-03T14:16:58;9.40;51.60
20487;DHT22;10402;49.012;8.370;2023-04-03T14:19:35;9.30;51.60
20487;DHT22;10402;49.012;8.370;2023-04-03T14:22:11;9.20;52.00
20487;DHT22;10402;49.012;8.370;2023-04-03T14:24:38;9.10;52.10
20487;DHT22;10402;49.012;8.370;2023-04-03T14:27:13;9.00;52.10
20487;DHT22;10402;49.012;8.370;2023-04-03T14:29:40;9.00;52.30
20487;DHT22;10402;49.012;8.370;2023-04-03T14:32:05;9.00;52.80
20487;DHT22;10402;49.012;8.370;2023-04-03T14:34:31;9.00;52.50
20487;DHT22;10402;49.012;8.370;2023-04-03T14:36:57;9.00;52.30
20487;DHT22;10402;49.012;8.370;2023-04-03T14:39:22;8.90;51.90
20487;DHT22;10402;49.012;8.370;2023-04-03T14:41:48;8.90;52.30
20487;DHT22;10402;49.012;8.370;2023-04-03T14:44:14;8.90;52.30
20487;DHT22;10402;49.012;8.370;2023-04-03T14:46:42;8.90;52.50
20487;DHT22;10402;49.012;8.370;2023-04-03T14:49:17;8.90;52.50
20487;DHT22;10402;49.012;8.370;2023-04-03T14:51:43;9.00;52.20
20487;DHT22;10402;49.012;8.370;2023-04-03T14:54:14;9.00;52.30
20487;DHT22;10402;49.012;8.370;2023-04-03T14:56:40;9.00;52.30
20487;DHT22;10402;49.012;8.370;2023-04-03T14:59:09;9.00;52.40
20487;DHT22;10402;49.012;8.370;2023-04-03T15:01:36;9.10;52.40
20487;DHT22;10402;49.012;8.370;2023-04-03T15:04:05;9.00;52.20
20487;DHT22;10402;49.012;8.370;2023-04-03T15:06:30;9.10;52.40
20487;DHT22;10402;49.012;8.370;2023-04-03T15:08:57;9.10;52.40
20487;DHT22;10402;49.012;8.370;2023-04-03T15:11:22;9.20;52.50
20487;DHT22;10402;49.012;8.370;2023-04-03T15:13:48;9.10;52.20
20487;DHT22;10402;49.012;8.370;2023-04-03T15:16:18;9.20;52.70
20487;DHT22;10402;49.012;8.370;2023-04-03T15:18:45;9.10;50.80
20487;DHT22;10402;49.012;8.370;2023-04-03T15:21:11;9.20;51.30
20487;DHT22;10402;49.012;8.370;2023-04-03T15:23:37;9.20;51.40
20487;DHT22;10402;49.012;8.370;2023-04-03T15:26:03;9.20;51.10
20487;DHT22;10402;49.012;8.370;2023-04-03T15:28:39;9.20;51.10
20487;DHT22;10402;49.012;8.370;2023-04-03T15:31:06;9.10;51.00
20487;DHT22;10402;49.012;8.370;2023-04-03T15:33:32;9.10;50.90
20487;DHT22;10402;49.012;8.370;2023-04-03T15:35:58;9.00;51.30
20487;DHT22;10402;49.012;8.370;2023-04-03T15:38:24;9.10;51.60
20487;DHT22;10402;49.012;8.370;2023-04-03T15:40:50;9.20;51.80
20487;DHT22;10402;49.012;8.370;2023-04-03T15:43:16;9.40;51.90
20487;DHT22;10402;49.012;8.370;2023-04-03T15:45:42;9.50;51.50
20487;DHT22;10402;49.012;8.370;2023-04-03T15:48:09;9.60;51.70
20487;DHT22;10402;49.012;8.370;2023-04-03T15:50:35;9.60;51.60
20487;DHT22;10402;49.012;8.370;2023-04-03T15:53:02;9.60;51.00
20487;DHT22;10402;49.012;8.370;2023-04-03T15:55:30;9.50;50.70
20487;DHT22;10402;49.012;8.370;2023-04-03T15:57:56;9.40;51.00
20487;DHT22;10402;49.012;8.370;2023-04-03T16:00:23;9.30;50.40
20487;DHT22;10402;49.012;8.370;2023-04-03T16:02:52;9.20;50.90
20487;DHT22;10402;49.012;8.370;2023-04-03T16:05:19;9.10;51.00
20487;DHT22;10402;49.012;8.370;2023-04-03T16:07:45;9.10;51.10
20487;DHT22;10402;49.012;8.370;2023-04-03T16:10:13;9.20;51.20
20487;DHT22;10402;49.012;8.370;2023-04-03T16:12:38;9.20;50.90
20487;DHT22;10402;49.012;8.370;2023-04-03T16:15:05;9.30;51.00
20487;DHT22;10402;49.012;8.370;2023-04-03T16:17:32;9.40;51.20
20487;DHT22;10402;49.012;8.370;2023-04-03T16:19:59;9.40;50.50
20487;DHT22;10402;49.012;8.370;2023-04-03T16:22:26;9.40;50.40
20487;DHT22;10402;49.012;8.370;2023-04-03T16:24:53;9.30;49.40
20487;DHT22;10402;49.012;8.370;2023-04-03T16:27:19;9.30;49.80
20487;DHT22;10402;49.012;8.370;2023-04-03T16:29:44;9.30;50.10
20487;DHT22;10402;49.012;8.370;2023-04-03T16:32:11;9.30;49.90
20487;DHT22;10402;49.012;8.370;2023-04-03T16:34:37;9.30;50.10
20487;DHT22;10402;49.012;8.370;2023-04-03T16:37:03;9.30;49.70
20487;DHT22;10402;49.012;8.370;2023-04-03T16:39:29;9.20;49.80
20487;DHT22;10402;49.012;8.370;2023-04-03T16:41:54;9.20;49.90
20487;DHT22;10402;49.012;8.370;2023-04-03T16:44:20;9.20;50.10
20487;DHT22;10402;49.012;8.370;2023-04-03T16:46:45;9.30;50.20
20487;DHT22;10402;49.012;8.370;2023-04-03T16:49:11;9.30;49.90
20487;DHT22;10402;49.012;8.370;2023-04-03T16:51:37;9.30;49.80
20487;DHT22;10402;49.012;8.370;2023-04-03T16:54:02;9.20;48.50
20487;DHT22;10402;49.012;8.370;2023-04-03T16:56:28;9.10;48.60
20487;DHT22;10402;49.012;8.370;2023-04-03T16:58:54;9.00;48.50
20487;DHT22;10402;49.012;8.370;2023-04-03T17:01:21;9.00;48.60
20487;DHT22;10402;49.012;8.370;2023-04-03T17:03:46;8.90;49.10
20487;DHT22;10402;49.012;8.370;2023-04-03T17:06:16;9.00;49.20
20487;DHT22;10402;49.012;8.370;2023-04-03T17:08:44;9.00;49.50
20487;DHT22;10402;49.012;8.370;2023-04-03T17:11:10;9.00;49.50